Time;durP1;ratioP1;P1;durP2;ratioP2;P2;SDS_P1;SDS_P2;PMS_P1;PMS_P2;Temp;Humidity;BMP_temperature;BMP_pressure;BME280_temperature;BME280_humidity;BME280_pressure;Samples;Min_cycle;Max_cycle;Signal;HPM_P1;HPM_P2
2023/07/21 00:01:55;;;;;;;5.03;2.70;;;;;;;19.87;94.87;99629.13;6310892;28;20048;-70
2023/07/21 00:04:58;;;;;;;5.53;2.88;;;;;;;19.94;95.46;99635.44;6315289;28;20132;-70
2023/07/21 00:07:59;;;;;;;7.65;2.45;;;;;;;19.92;96.17;99627.66;6322001;28;20047;-70
2023/07/21 00:11:00;;;;;;;3.70;2.87;;;;;;;19.84;94.82;99632.13;6322350;28;20048;-72
2023/07/21 00:14:01;;;;;;;5.67;2.80;;;;;;;19.87;94.32;99629.97;6321283;28;20120;-70
2023/07/21 00:17:04;;;;;;;4.70;2.90;;;;;;;19.83;94.47;99623.34;6313796;28;20078;-72
2023/07/21 00:20:21;;;;;;;3.72;2.72;;;;;;;19.76;94.95;99619.69;6322524;28;20249;-72
2023/07/21 00:23:24;;;;;;;3.88;2.33;;;;;;;19.69;95.83;99624.78;6299317;28;20088;-70
2023/07/21 00:26:24;;;;;;;3.22;2.42;;;;;;;19.65;95.67;99625.28;6308486;28;20420;-70
2023/07/21 00:29:25;;;;;;;5.80;2.43;;;;;;;19.59;95.39;99636.50;6323619;28;20052;-70
2023/07/21 00:32:26;;;;;;;4.07;2.50;;;;;;;19.56;95.07;99632.38;6324458;28;20404;-71
2023/07/21 00:35:26;;;;;;;4.73;2.67;;;;;;;19.60;96.65;99633.72;6321248;28;20109;-70
2023/07/21 00:38:27;;;;;;;3.00;2.27;;;;;;;19.53;94.81;99635.31;6321642;28;20462;-70
2023/07/21 00:41:30;;;;;;;5.90;2.43;;;;;;;19.40;95.58;99643.72;6310832;28;20051;-70
2023/07/21 00:44:31;;;;;;;3.35;2.55;;;;;;;19.48;97.62;99641.13;6321347;28;20048;-70
2023/07/21 00:47:35;;;;;;;4.73;2.67;;;;;;;19.51;95.44;99639.94;6317897;28;20055;-70
2023/07/21 00:50:42;;;;;;;3.80;2.28;;;;;;;19.46;95.53;99636.97;6318928;28;20048;-70
2023/07/21 00:53:43;;;;;;;7.80;2.92;;;;;;;19.45;95.08;99633.47;6318045;28;20101;-72
2023/07/21 00:56:45;;;;;;;4.27;2.10;;;;;;;19.46;94.74;99635.16;6302386;28;20579;-72
2023/07/21 00:59:46;;;;;;;;;;;;;;;19.47;94.63;99630.69;6315173;28;20047;-71
2023/07/21 01:02:49;;;;;;;6.10;2.45;;;;;;;19.36;95.63;99625.72;6310503;28;20296;-72
2023/07/21 01:05:53;;;;;;;5.05;2.13;;;;;;;19.29;95.27;99634.28;6303439;28;20040;-72
2023/07/21 01:09:01;;;;;;;2.67;1.90;;;;;;;19.15;95.31;99629.59;6306564;28;20044;-71
2023/07/21 01:12:05;;;;;;;4.57;2.42;;;;;;;19.21;96.28;99631.59;6316214;28;20048;-70
2023/07/21 01:15:06;;;;;;;3.67;2.22;;;;;;;19.19;95.56;99627.44;6299446;28;20044;-72
2023/07/21 01:18:08;;;;;;;2.95;2.22;;;;;;;19.15;95.84;99636.69;6312418;28;20044;-72
2023/07/21 01:21:11;;;;;;;;;;;;;;;19.09;95.82;99638.16;6323810;28;20055;-72
2023/07/21 01:24:27;;;;;;;2.40;1.88;;;;;;;19.02;95.85;99631.84;6309824;28;19963;-72
2023/07/21 01:27:28;;;;;;;3.33;2.30;;;;;;;18.99;96.45;99630.34;6310838;28;20044;-70
2023/07/21 01:30:30;;;;;;;4.55;1.98;;;;;;;19.01;98.84;99628.38;6314520;28;20129;-72
2023/07/21 01:33:32;;;;;;;5.75;2.38;;;;;;;18.97;96.87;99634.97;6313463;28;20056;-72
2023/07/21 01:36:35;;;;;;;3.60;2.25;;;;;;;18.89;97.61;99629.63;6306068;28;20052;-72
2023/07/21 01:39:36;;;;;;;2.40;2.00;;;;;;;18.75;97.74;99631.00;6306761;28;20121;-72
2023/07/21 01:42:37;;;;;;;3.38;2.40;;;;;;;18.71;97.29;99638.41;6313291;28;20049;-72
2023/07/21 01:45:38;;;;;;;9.90;2.10;;;;;;;18.75;97.21;99644.22;6299814;28;20139;-72
2023/07/21 01:48:39;;;;;;;2.63;2.03;;;;;;;18.72;96.92;99633.97;6306261;28;20107;-70
2023/07/21 01:51:42;;;;;;;6.60;2.45;;;;;;;18.80;95.34;99635.84;6302464;28;20143;-70
2023/07/21 01:54:50;;;;;;;7.53;2.42;;;;;;;18.80;95.29;99639.34;6310663;28;20044;-69
2023/07/21 01:58:07;;;;;;;3.17;2.22;;;;;;;18.68;95.16;99643.19;6315071;28;20498;-70
2023/07/21 02:01:10;;;;;;;3.13;2.10;;;;;;;18.66;96.05;99647.81;6302650;28;20055;-70
2023/07/21 02:04:13;;;;;;;2.72;2.17;;;;;;;18.62;96.82;99652.56;6322003;28;20086;-69
2023/07/21 02:07:14;;;;;;;3.22;2.05;;;;;;;18.56;96.28;99652.38;6312663;28;20079;-70
2023/07/21 02:10:15;;;;;;;3.37;2.33;;;;;;;18.53;98.95;99653.50;6315831;28;20628;-70
2023/07/21 02:13:18;;;;;;;3.70;2.10;;;;;;;18.53;96.81;99650.84;6309212;28;20510;-70
2023/07/21 02:16:21;;;;;;;2.90;2.10;;;;;;;18.50;95.92;99659.91;6311874;28;20066;-70
2023/07/21 02:19:22;;;;;;;2.55;2.00;;;;;;;18.44;96.87;99657.88;6316688;28;20044;-70
2023/07/21 02:22:23;;;;;;;2.03;1.87;;;;;;;18.45;96.34;99664.00;6303336;28;20538;-70
2023/07/21 02:25:24;;;;;;;2.70;2.20;;;;;;;18.33;95.51;99664.25;6312964;28;20048;-70
2023/07/21 02:28:30;;;;;;;1.80;1.60;;;;;;;18.36;97.91;99664.94;6311366;28;20094;-71
2023/07/21 02:31:30;;;;;;;3.50;1.98;;;;;;;18.42;95.29;99670.41;6296555;28;20056;-70
2023/07/21 02:34:31;;;;;;;4.13;2.30;;;;;;;18.32;96.67;99665.25;6306477;28;20055;-70
2023/07/21 02:37:32;;;;;;;2.08;1.90;;;;;;;18.31;96.02;99674.13;6295596;28;20048;-70
2023/07/21 02:40:33;;;;;;;5.63;1.98;;;;;;;18.23;95.40;99670.59;6302939;28;20055;-70
2023/07/21 02:43:34;;;;;;;2.88;2.25;;;;;;;18.21;96.33;99677.84;6316821;28;20049;-71
2023/07/21 02:46:36;;;;;;;4.00;2.10;;;;;;;18.29;97.92;99680.56;6296961;28;20075;-70
2023/07/21 02:49:37;;;;;;;;;;;;;;;18.32;97.68;99669.69;6295415;28;20122;-71
2023/07/21 02:52:40;;;;;;;4.65;2.53;;;;;;;18.26;98.05;99675.56;6314386;28;20388;-70
2023/07/21 02:55:42;;;;;;;2.13;1.80;;;;;;;18.27;95.84;99674.59;6318198;28;20460;-70
2023/07/21 02:58:42;;;;;;;2.38;2.00;;;;;;;18.26;95.55;99679.06;6301504;28;20045;-70
2023/07/21 03:01:54;;;;;;;3.10;1.90;;;;;;;18.26;93.44;99675.56;6306311;28;20113;-71
2023/07/21 03:04:55;;;;;;;3.67;2.33;;;;;;;18.20;92.62;99669.09;6303315;28;20044;-72
2023/07/21 03:08:00;;;;;;;3.35;1.80;;;;;;;18.26;94.48;99681.72;6308216;28;20050;-72
2023/07/21 03:11:00;;;;;;;2.67;2.03;;;;;;;18.25;95.56;99687.13;6305252;28;20052;-72
2023/07/21 03:14:01;;;;;;;3.30;1.95;;;;;;;18.17;94.41;99693.16;6306315;28;20057;-71
2023/07/21 03:17:02;;;;;;;2.90;1.88;;;;;;;18.09;94.51;99693.91;6310747;28;20544;-70
2023/07/21 03:20:10;;;;;;;2.30;1.85;;;;;;;18.06;92.89;99688.13;6322816;28;20518;-72
2023/07/21 03:23:14;;;;;;;2.67;1.80;;;;;;;18.07;92.64;99689.75;6313750;28;20143;-70
2023/07/21 03:26:15;;;;;;;9.15;1.75;;;;;;;18.03;93.30;99691.06;6304323;28;20044;-70
2023/07/21 03:29:15;;;;;;;2.65;1.83;;;;;;;18.00;92.38;99686.91;6300424;28;20408;-70
2023/07/21 03:32:21;;;;;;;3.67;1.80;;;;;;;18.06;92.31;99691.59;6314448;28;20048;-70
2023/07/21 03:35:22;;;;;;;2.97;1.85;;;;;;;18.06;91.45;99694.22;6302758;28;20047;-71
2023/07/21 03:38:23;;;;;;;1.92;1.63;;;;;;;17.97;90.64;99697.75;6300399;28;20119;-71
2023/07/21 03:41:24;;;;;;;3.15;1.65;;;;;;;18.02;90.65;99702.59;6309946;28;20052;-69
2023/07/21 03:44:25;;;;;;;2.45;1.50;;;;;;;18.06;89.71;99696.03;6322454;28;20127;-69
2023/07/21 03:47:30;;;;;;;1.75;1.50;;;;;;;18.08;90.75;99692.25;6322214;28;20055;-70
2023/07/21 03:50:33;;;;;;;2.47;1.80;;;;;;;17.99;90.60;99693.16;6307997;28;20428;-70
2023/07/21 03:53:34;;;;;;;1.73;1.30;;;;;;;17.99;89.64;99687.06;6305728;28;20047;-72
2023/07/21 03:56:35;;;;;;;2.55;2.35;;;;;;;18.11;90.14;99699.03;6316236;28;20131;-70
2023/07/21 03:59:38;;;;;;;3.35;1.75;;;;;;;18.09;88.98;99704.47;6323962;28;20552;-71
2023/07/21 04:02:41;;;;;;;2.42;1.60;;;;;;;18.18;88.75;99701.91;6308601;28;20059;-71
2023/07/21 04:05:42;;;;;;;1.60;1.40;;;;;;;18.17;87.80;99695.81;6317471;28;20423;-71
2023/07/21 04:08:42;;;;;;;2.20;1.50;;;;;;;18.15;88.06;99704.84;6316170;28;20044;-71
2023/07/21 04:11:43;;;;;;;1.70;1.42;;;;;;;18.26;88.34;99704.63;6310013;28;20451;-72
2023/07/21 04:14:44;;;;;;;1.83;1.40;;;;;;;18.31;86.99;99708.47;6299215;28;20056;-72
2023/07/21 04:17:45;;;;;;;3.25;1.52;;;;;;;18.35;87.32;99710.81;6301250;28;20075;-72
2023/07/21 04:20:48;;;;;;;1.83;1.58;;;;;;;18.43;88.52;99709.06;6321775;28;20120;-70
2023/07/21 04:23:49;;;;;;;3.78;1.50;;;;;;;18.48;86.83;99709.44;6304231;28;20070;-71
2023/07/21 04:26:49;;;;;;;1.60;1.50;;;;;;;18.52;87.19;99707.31;6308691;28;20055;-72
2023/07/21 04:29:50;;;;;;;2.83;1.60;;;;;;;18.55;87.34;99712.28;6310059;28;20044;-73
2023/07/21 04:32:53;;;;;;;3.92;2.15;;;;;;;18.57;88.24;99714.78;6301138;28;20523;-71
2023/07/21 04:35:56;;;;;;;1.48;1.33;;;;;;;18.56;84.61;99719.25;6310539;28;20051;-71
2023/07/21 04:38:57;;;;;;;2.47;1.45;;;;;;;18.68;86.08;99712.72;6324043;28;20079;-71
2023/07/21 04:42:00;;;;;;;1.67;1.48;;;;;;;18.71;86.72;99714.22;6313080;28;20055;-72
2023/07/21 04:45:01;;;;;;;2.47;1.35;;;;;;;18.82;86.03;99710.53;6305030;28;20056;-71
2023/07/21 04:48:04;;;;;;;2.20;1.40;;;;;;;18.91;85.80;99709.59;6311988;28;20053;-71
2023/07/21 04:51:05;;;;;;;2.15;1.50;;;;;;;19.00;85.33;99707.84;6308535;28;20106;-72
2023/07/21 04:54:07;;;;;;;1.67;1.50;;;;;;;18.92;84.67;99703.31;6303143;28;20485;-71
2023/07/21 04:57:10;;;;;;;2.92;1.35;;;;;;;19.06;84.00;99713.31;6304324;28;20048;-71
2023/07/21 05:00:12;;;;;;;2.35;1.48;;;;;;;19.18;83.63;99708.59;6322086;28;20058;-71
2023/07/21 05:03:12;;;;;;;1.58;1.42;;;;;;;19.26;83.88;99700.72;6306867;28;20056;-72
2023/07/21 05:06:13;;;;;;;1.75;1.30;;;;;;;19.37;83.84;99702.25;6308413;28;20480;-71
2023/07/21 05:09:14;;;;;;;1.77;1.55;;;;;;;19.40;83.16;99701.94;6320324;28;20080;-71
2023/07/21 05:12:15;;;;;;;1.57;1.43;;;;;;;19.49;82.39;99694.84;6321979;28;20389;-71
2023/07/21 05:15:15;;;;;;;2.28;1.33;;;;;;;19.59;81.82;99690.25;6321239;28;20139;-71
2023/07/21 05:18:18;;;;;;;6.95;1.52;;;;;;;19.77;80.55;99694.63;6302640;28;20047;-71
2023/07/21 05:21:19;;;;;;;3.97;1.60;;;;;;;19.86;81.43;99705.06;6304193;28;20513;-72
2023/07/21 05:24:20;;;;;;;5.13;1.53;;;;;;;19.93;81.74;99707.91;6297057;28;20044;-72
2023/07/21 05:27:21;;;;;;;2.20;1.75;;;;;;;19.97;80.93;99711.88;6296951;28;20135;-71
2023/07/21 05:30:24;;;;;;;3.25;1.70;;;;;;;20.11;79.75;99705.13;6297873;28;20137;-71
2023/07/21 05:33:24;;;;;;;3.40;1.55;;;;;;;20.25;79.76;99703.66;6296699;28;20048;-71
2023/07/21 05:36:25;;;;;;;1.83;1.37;;;;;;;20.35;78.34;99695.56;6299224;28;20056;-71
2023/07/21 05:39:29;;;;;;;2.43;1.73;;;;;;;20.44;78.30;99694.53;6296375;28;20117;-71
2023/07/21 05:42:30;;;;;;;3.88;2.00;;;;;;;20.53;77.31;99699.69;6306714;28;20055;-72
2023/07/21 05:45:36;;;;;;;3.17;1.60;;;;;;;20.66;77.46;99695.72;6311224;28;20048;-71
2023/07/21 05:48:36;;;;;;;1.40;1.17;;;;;;;20.83;76.61;99700.00;6303603;28;20056;-71
2023/07/21 05:51:37;;;;;;;2.30;1.70;;;;;;;21.02;75.85;99708.56;6298283;28;20114;-71
2023/07/21 05:54:39;;;;;;;3.27;1.47;;;;;;;21.10;74.62;99709.38;6305046;28;20081;-71
2023/07/21 05:57:42;;;;;;;2.80;1.83;;;;;;;21.27;74.45;99711.97;6305138;28;20055;-71
2023/07/21 06:00:45;;;;;;;6.43;1.58;;;;;;;21.44;74.47;99713.63;6322085;28;20052;-71
2023/07/21 06:03:48;;;;;;;1.60;1.42;;;;;;;21.63;75.16;99703.59;6310182;28;20046;-71
2023/07/21 06:06:51;;;;;;;2.33;1.52;;;;;;;21.87;74.10;99706.09;6308954;28;20400;-72
2023/07/21 06:09:52;;;;;;;3.92;1.70;;;;;;;21.99;73.40;99708.34;6294946;28;20048;-71
2023/07/21 06:12:52;;;;;;;3.90;1.53;;;;;;;22.10;71.57;99723.88;6296179;28;20106;-71
2023/07/21 06:15:55;;;;;;;2.03;1.60;;;;;;;22.35;71.75;99715.78;6296094;28;20558;-71
2023/07/21 06:18:56;;;;;;;2.53;1.55;;;;;;;22.42;71.68;99720.19;6296411;28;20076;-71
2023/07/21 06:21:57;;;;;;;3.30;1.83;;;;;;;22.63;71.98;99721.34;6296099;28;20094;-71
2023/07/21 06:24:58;;;;;;;2.33;1.40;;;;;;;22.88;69.25;99709.47;6295084;28;20045;-71
2023/07/21 06:28:01;;;;;;;1.77;1.60;;;;;;;23.02;67.86;99701.69;6295400;28;20048;-71
2023/07/21 06:31:02;;;;;;;2.88;1.50;;;;;;;23.49;68.41;99705.81;6295483;28;20052;-72
2023/07/21 06:34:03;;;;;;;2.42;1.48;;;;;;;23.61;65.33;99706.97;6295149;28;20084;-71
2023/07/21 06:37:04;;;;;;;2.53;1.67;;;;;;;24.05;64.19;99698.09;6296145;28;20496;-71
2023/07/21 06:40:06;;;;;;;2.00;1.60;;;;;;;24.24;63.52;99698.47;6295367;28;20083;-72
2023/07/21 06:43:07;;;;;;;1.98;1.50;;;;;;;24.16;67.69;99687.94;6296296;28;20048;-72
2023/07/21 06:46:10;;;;;;;1.23;1.13;;;;;;;23.92;64.41;99698.75;6294939;28;20061;-71
2023/07/21 06:49:14;;;;;;;3.97;1.70;;;;;;;23.96;65.84;99701.88;6296096;28;20089;-72
2023/07/21 06:52:15;;;;;;;2.17;1.50;;;;;;;24.05;66.86;99700.75;6296247;28;20059;-69
2023/07/21 06:55:16;;;;;;;2.08;1.70;;;;;;;24.00;65.19;99710.31;6299752;28;20049;-71
2023/07/21 06:58:20;;;;;;;1.80;1.40;;;;;;;24.05;66.26;99719.41;6301201;28;20489;-72
2023/07/21 07:01:20;;;;;;;1.92;1.48;;;;;;;23.92;64.75;99713.91;6301336;28;20090;-72
2023/07/21 07:04:21;;;;;;;2.30;1.30;;;;;;;23.96;67.76;99715.19;6300071;28;20080;-72
2023/07/21 07:07:22;;;;;;;1.43;1.30;;;;;;;24.08;67.40;99713.69;6301235;28;20040;-72
2023/07/21 07:10:23;;;;;;;5.33;1.50;;;;;;;24.27;65.43;99706.88;6300094;28;20049;-71
2023/07/21 07:13:23;;;;;;;2.17;1.40;;;;;;;24.46;66.98;99707.25;6316976;28;20083;-72
2023/07/21 07:16:24;;;;;;;1.90;1.60;;;;;;;24.54;67.94;99715.16;6300804;28;20088;-72
2023/07/21 07:19:27;;;;;;;1.83;1.37;;;;;;;24.51;66.79;99713.69;6299376;28;20045;-72
2023/07/21 07:22:28;;;;;;;3.97;1.50;;;;;;;24.50;65.99;99713.88;6300700;28;20589;-72
2023/07/21 07:25:29;;;;;;;1.77;1.50;;;;;;;24.74;65.82;99712.63;6300527;28;20048;-72
2023/07/21 07:28:30;;;;;;;2.28;1.30;;;;;;;24.96;65.29;99710.75;6300508;28;20040;-69
2023/07/21 07:31:31;;;;;;;3.05;1.80;;;;;;;25.12;65.62;99713.09;6299302;28;20416;-70
2023/07/21 07:34:35;;;;;;;3.15;1.88;;;;;;;25.18;65.68;99713.31;6300405;28;20082;-70
2023/07/21 07:37:36;;;;;;;1.85;1.45;;;;;;;25.32;63.66;99720.41;6298937;28;20048;-71
2023/07/21 07:40:37;;;;;;;2.23;1.60;;;;;;;25.41;63.05;99719.25;6299259;28;20053;-71
2023/07/21 07:43:38;;;;;;;1.42;1.33;;;;;;;25.32;62.52;99720.41;6299090;28;20098;-70
2023/07/21 07:46:39;;;;;;;2.15;1.60;;;;;;;25.32;62.96;99709.72;6298906;28;20074;-70
2023/07/21 07:49:40;;;;;;;2.60;1.83;;;;;;;25.59;63.91;99710.66;6298691;28;20530;-70
2023/07/21 07:52:46;;;;;;;5.93;1.40;;;;;;;25.59;60.96;99717.88;6299980;28;20052;-71
2023/07/21 07:55:50;;;;;;;4.70;1.70;;;;;;;25.84;61.73;99715.47;6298867;28;20052;-71
2023/07/21 07:58:51;;;;;;;1.60;1.40;;;;;;;26.20;63.04;99706.34;6299666;28;20515;-70
2023/07/21 08:01:52;;;;;;;6.27;1.73;;;;;;;26.44;61.56;99707.56;6298927;28;20060;-70
2023/07/21 08:04:52;;;;;;;5.93;1.70;;;;;;;26.32;57.68;99708.19;6298259;28;20044;-70
2023/07/21 08:07:58;;;;;;;2.27;1.80;;;;;;;26.39;59.96;99716.22;6298220;28;20361;-70
2023/07/21 08:11:01;;;;;;;2.15;1.60;;;;;;;26.64;58.35;99724.47;6299546;28;20458;-70
2023/07/21 08:14:02;;;;;;;2.13;1.77;;;;;;;26.79;59.76;99718.94;6299652;28;20136;-70
2023/07/21 08:17:03;;;;;;;3.20;1.67;;;;;;;26.53;59.77;99706.34;6299562;28;20052;-69
2023/07/21 08:20:08;;;;;;;5.38;1.83;;;;;;;26.34;59.78;99702.66;6299368;28;20135;-70
2023/07/21 08:23:09;;;;;;;2.63;1.83;;;;;;;26.86;58.30;99697.50;6298266;28;20048;-70
2023/07/21 08:26:10;;;;;;;2.22;1.80;;;;;;;27.44;57.45;99705.59;6297973;28;20051;-70
2023/07/21 08:29:10;;;;;;;2.00;1.73;;;;;;;27.83;59.08;99713.66;6299216;28;20052;-70
2023/07/21 08:32:11;;;;;;;3.40;1.87;;;;;;;28.17;56.84;99709.78;6297896;28;20048;-70
2023/07/21 08:35:12;;;;;;;6.10;1.73;;;;;;;27.63;54.21;99705.72;6297985;28;20308;-70
2023/07/21 08:38:13;;;;;;;4.57;1.90;;;;;;;28.12;56.30;99702.38;6298791;28;20054;-72
2023/07/21 08:41:17;;;;;;;1.90;1.70;;;;;;;28.58;56.44;99708.47;6297848;28;20412;-72
2023/07/21 08:44:19;;;;;;;2.80;1.70;;;;;;;29.03;53.52;99713.56;6298548;28;20760;-72
2023/07/21 08:47:25;;;;;;;6.32;1.90;;;;;;;28.91;55.33;99709.97;6297583;28;20143;-72
2023/07/21 08:50:26;;;;;;;4.90;1.80;;;;;;;29.10;52.52;99713.53;6298479;28;20083;-72
2023/07/21 08:53:27;;;;;;;7.40;1.92;;;;;;;28.60;52.87;99705.53;6297762;28;20087;-72
2023/07/21 08:56:30;;;;;;;2.30;1.80;;;;;;;28.93;54.14;99714.09;6297361;28;20243;-72
2023/07/21 08:59:31;;;;;;;2.60;1.65;;;;;;;29.21;48.42;99703.94;6297295;28;20572;-72
2023/07/21 09:02:44;;;;;;;1.42;1.33;;;;;;;29.57;51.96;99700.41;6298599;28;20056;-72
2023/07/21 09:05:46;;;;;;;3.72;1.50;;;;;;;29.47;48.24;99695.53;6296622;28;20500;-72
2023/07/21 09:08:47;;;;;;;7.35;1.83;;;;;;;29.57;49.74;99697.72;6297979;28;20076;-72
2023/07/21 09:11:49;;;;;;;3.80;1.60;;;;;;;29.64;51.45;99708.38;6296857;28;20048;-72
2023/07/21 09:14:50;;;;;;;6.25;1.60;;;;;;;29.95;45.57;99699.28;6297015;28;20049;-72
2023/07/21 09:17:51;;;;;;;1.95;1.52;;;;;;;29.98;45.23;99701.50;6296677;28;20102;-72
2023/07/21 09:20:54;;;;;;;1.90;1.58;;;;;;;30.11;46.93;99701.31;6298100;28;20049;-72
2023/07/21 09:24:08;;;;;;;2.17;1.55;;;;;;;30.08;42.14;99696.41;6297860;28;20048;-72
2023/07/21 09:27:14;;;;;;;3.70;1.60;;;;;;;30.43;44.23;99692.13;6297888;28;20519;-73
2023/07/21 09:30:14;;;;;;;3.92;1.95;;;;;;;30.77;42.05;99689.69;6296368;28;20492;-72
2023/07/21 09:33:15;;;;;;;1.30;1.20;;;;;;;30.93;39.72;99694.41;6297764;28;20055;-72
2023/07/21 09:36:19;;;;;;;1.67;1.40;;;;;;;31.17;44.35;99697.03;6296378;28;20411;-72
2023/07/21 09:39:20;;;;;;;4.03;1.48;;;;;;;30.70;43.84;99697.88;6297234;28;20454;-72
2023/07/21 09:42:23;;;;;;;2.72;2.53;;;;;;;30.05;43.60;99699.53;6313218;28;20052;-70
2023/07/21 09:45:25;;;;;;;1.90;1.60;;;;;;;29.89;45.96;99694.81;6338988;27;20136;-70
2023/07/21 09:48:27;;;;;;;2.92;1.80;;;;;;;30.12;44.03;99696.72;6316198;28;20056;-71
2023/07/21 09:51:30;;;;;;;2.10;1.20;;;;;;;30.71;40.61;99686.88;6305843;28;20048;-70
2023/07/21 09:54:32;;;;;;;3.10;1.20;;;;;;;30.70;45.26;99681.72;6317282;28;20526;-70
2023/07/21 09:57:35;;;;;;;3.10;1.52;;;;;;;31.64;38.27;99678.06;6322309;28;20078;-70
2023/07/21 10:00:39;;;;;;;1.27;1.17;;;;;;;31.57;37.96;99685.47;6320927;28;20054;-69
2023/07/21 10:03:41;;;;;;;2.50;1.63;;;;;;;31.44;38.70;99682.00;6302110;28;20155;-70
2023/07/21 10:06:44;;;;;;;1.40;1.27;;;;;;;31.77;39.15;99675.03;6297247;28;20131;-70
2023/07/21 10:09:49;;;;;;;1.95;1.40;;;;;;;32.16;38.83;99674.41;6295847;28;20131;-70
2023/07/21 10:12:52;;;;;;;2.72;1.25;;;;;;;32.43;37.25;99688.03;6300689;28;20048;-70
2023/07/21 10:15:59;;;;;;;2.33;1.35;;;;;;;32.38;35.52;99682.59;6303732;28;20044;-70
2023/07/21 10:19:11;;;;;;;1.40;1.30;;;;;;;32.71;38.48;99679.06;6309695;28;20052;-72
2023/07/21 10:22:24;;;;;;;2.88;1.40;;;;;;;32.92;38.79;99674.75;6305296;28;20048;-72
2023/07/21 10:25:25;;;;;;;1.50;1.23;;;;;;;32.79;39.18;99661.59;6295420;28;20060;-71
2023/07/21 10:28:37;;;;;;;;;;;;;;;32.74;39.29;99659.66;6298773;28;20117;-70
2023/07/21 10:31:50;;;;;;;2.10;1.33;;;;;;;31.96;36.44;99655.94;6311000;28;20352;-71
2023/07/21 10:34:54;;;;;;;2.78;1.50;;;;;;;31.96;40.59;99659.50;6310848;28;20093;-70
2023/07/21 10:38:13;;;;;;;1.33;1.23;;;;;;;31.44;37.63;99660.44;6308772;28;20059;-70
2023/07/21 10:41:18;;;;;;;1.95;1.30;;;;;;;31.10;39.13;99664.84;6311203;28;20125;-70
2023/07/21 10:44:20;;;;;;;1.40;1.30;;;;;;;30.92;37.55;99663.94;6309531;28;20488;-70
2023/07/21 10:47:21;;;;;;;2.20;1.40;;;;;;;30.76;37.37;99664.63;6306991;28;20058;-71
2023/07/21 10:50:23;;;;;;;1.63;1.33;;;;;;;30.44;37.86;99654.22;6310447;28;20049;-71
2023/07/21 10:53:24;;;;;;;4.32;1.30;;;;;;;30.10;39.56;99658.47;6318864;28;20048;-71
2023/07/21 10:56:25;;;;;;;;;;;;;;;30.20;40.60;99642.59;6321935;28;20585;-70
2023/07/21 10:59:29;;;;;;;2.83;1.30;;;;;;;29.95;39.64;99634.72;6320178;28;19920;-70
2023/07/21 11:02:38;;;;;;;5.80;1.60;;;;;;;30.72;40.21;99625.75;6308808;28;20048;-70
2023/07/21 11:05:39;;;;;;;2.20;1.23;;;;;;;30.73;41.70;99617.44;6336817;28;20048;-70
2023/07/21 11:08:40;;;;;;;3.17;1.55;;;;;;;30.97;40.76;99617.44;6321144;28;20113;-70
2023/07/21 11:11:42;;;;;;;2.00;1.50;;;;;;;31.32;40.97;99613.81;6320187;28;20404;-70
2023/07/21 11:14:46;;;;;;;4.32;1.45;;;;;;;31.31;40.73;99612.97;6321198;28;20101;-72
2023/07/21 11:17:58;;;;;;;1.95;1.30;;;;;;;31.71;38.70;99611.28;6320166;28;20479;-71
2023/07/21 11:20:58;;;;;;;2.97;1.40;;;;;;;31.19;38.00;99608.72;6319887;28;20055;-71
2023/07/21 11:24:00;;;;;;;2.63;1.40;;;;;;;30.92;39.52;99610.06;6320179;28;20056;-71
2023/07/21 11:27:09;;;;;;;2.15;1.33;;;;;;;30.33;38.01;99606.59;6319875;28;20052;-71
2023/07/21 11:30:10;;;;;;;2.42;1.38;;;;;;;30.24;40.84;99606.09;6319710;28;20074;-72
2023/07/21 11:33:12;;;;;;;1.70;1.23;;;;;;;30.16;39.05;99601.06;6321067;28;20052;-70
2023/07/21 11:36:21;;;;;;;2.10;1.27;;;;;;;29.64;40.29;99601.66;6321230;28;20059;-70
2023/07/21 11:39:22;;;;;;;2.33;1.52;;;;;;;30.01;42.36;99604.22;6310134;28;20040;-70
2023/07/21 11:42:26;;;;;;;;;;;;;;;30.01;41.62;99608.78;6324556;28;20055;-70
2023/07/21 11:45:35;;;;;;;1.77;1.40;;;;;;;29.82;42.33;99613.44;6319549;28;19971;-72
2023/07/21 11:48:36;;;;;;;1.98;1.60;;;;;;;29.61;41.84;99606.66;6304628;28;20048;-72
2023/07/21 11:51:45;;;;;;;3.28;1.70;;;;;;;29.51;42.61;99607.25;6313270;28;20067;-72
2023/07/21 11:54:46;;;;;;;1.98;1.48;;;;;;;29.38;44.20;99608.22;6307206;28;20491;-72
2023/07/21 11:57:46;;;;;;;3.00;1.50;;;;;;;29.28;44.26;99606.09;6315268;28;20037;-72
2023/07/21 12:00:48;;;;;;;5.05;1.50;;;;;;;29.19;43.90;99607.44;6314859;28;20125;-72
2023/07/21 12:03:49;;;;;;;2.00;1.55;;;;;;;28.97;46.47;99604.38;6325339;28;20135;-72
2023/07/21 12:06:57;;;;;;;2.90;1.35;;;;;;;28.82;43.52;99604.75;6324988;28;20052;-72
2023/07/21 12:10:00;;;;;;;6.13;1.52;;;;;;;28.90;45.29;99609.00;6323907;28;20044;-72
2023/07/21 12:13:03;;;;;;;4.63;1.70;;;;;;;28.68;48.80;99622.88;6323480;28;20044;-72
2023/07/21 12:16:04;;;;;;;2.00;1.48;;;;;;;28.53;49.18;99617.84;6309200;28;20084;-71
2023/07/21 12:19:06;;;;;;;1.77;1.42;;;;;;;27.95;51.07;99614.66;6304641;28;20474;-72
2023/07/21 12:22:07;;;;;;;8.23;1.40;;;;;;;28.09;50.95;99605.47;6306712;28;20048;-72
2023/07/21 12:25:09;;;;;;;2.67;1.30;;;;;;;27.84;51.37;99602.72;6306727;28;20044;-70
2023/07/21 12:28:10;;;;;;;2.28;1.65;;;;;;;27.79;52.63;99599.88;6303407;28;20106;-70
2023/07/21 12:31:11;;;;;;;4.05;1.65;;;;;;;28.01;53.41;99603.06;6306570;28;20457;-70
2023/07/21 12:34:12;;;;;;;;;;;;;;;28.03;54.11;99598.28;6303069;28;20071;-72
2023/07/21 12:37:13;;;;;;;2.80;1.43;;;;;;;27.96;52.35;99579.56;6303043;28;20492;-72
2023/07/21 12:40:15;;;;;;;1.73;1.42;;;;;;;28.00;55.02;99586.13;6307940;28;21282;-70
2023/07/21 12:43:18;;;;;;;3.00;1.52;;;;;;;27.97;52.19;99583.88;6305603;28;20087;-70
2023/07/21 12:46:19;;;;;;;3.10;1.70;;;;;;;27.76;51.81;99581.53;6307262;28;20055;-70
2023/07/21 12:49:20;;;;;;;3.05;1.50;;;;;;;27.73;55.41;99585.47;6305836;28;20149;-70
2023/07/21 12:52:21;;;;;;;2.35;1.60;;;;;;;27.76;54.80;99584.22;6305774;28;20048;-72
2023/07/21 12:55:21;;;;;;;2.00;1.45;;;;;;;27.61;53.56;99587.22;6298803;28;20045;-72
2023/07/21 12:58:25;;;;;;;1.65;1.35;;;;;;;27.50;52.96;99578.00;6298311;28;20052;-72
2023/07/21 13:01:25;;;;;;;2.92;1.25;;;;;;;27.26;53.97;99582.25;6295075;28;20067;-72
2023/07/21 13:04:26;;;;;;;2.03;1.38;;;;;;;27.14;55.96;99584.78;6297196;28;20443;-69
2023/07/21 13:07:29;;;;;;;2.92;1.75;;;;;;;26.91;59.03;99586.09;6296790;28;20109;-70
2023/07/21 13:10:32;;;;;;;2.42;1.50;;;;;;;26.78;58.80;99582.66;6293480;28;20055;-71
2023/07/21 13:13:33;;;;;;;3.97;1.95;;;;;;;26.63;65.04;99585.56;6301252;28;20048;-70
2023/07/21 13:16:34;;;;;;;3.00;1.80;;;;;;;26.56;70.15;99587.41;6306212;28;20519;-69
2023/07/21 13:19:34;;;;;;;4.18;1.85;;;;;;;26.45;70.89;99578.16;6303695;28;20045;-72
2023/07/21 13:22:38;;;;;;;2.85;1.60;;;;;;;26.21;72.09;99575.13;6321807;28;20098;-72
2023/07/21 13:25:41;;;;;;;1.98;1.70;;;;;;;26.20;73.92;99584.16;6322494;28;20135;-72
2023/07/21 13:28:42;;;;;;;2.50;1.60;;;;;;;26.12;74.82;99585.19;6321948;28;20040;-72
2023/07/21 13:31:43;;;;;;;2.38;1.73;;;;;;;25.98;73.82;99575.53;6321750;28;20067;-72
2023/07/21 13:34:43;;;;;;;3.50;2.03;;;;;;;25.96;73.74;99579.44;6322777;28;20047;-72
2023/07/21 13:37:44;;;;;;;3.28;1.90;;;;;;;25.76;78.88;99571.38;6322494;28;20582;-72
2023/07/21 13:40:47;;;;;;;2.10;1.92;;;;;;;25.64;77.79;99566.66;6322631;28;20113;-72
2023/07/21 13:43:48;;;;;;;4.05;2.20;;;;;;;25.33;78.98;99583.22;6322485;28;20044;-72
2023/07/21 13:46:50;;;;;;;2.85;1.90;;;;;;;24.92;85.14;99581.41;6320660;28;20416;-72
2023/07/21 13:49:54;;;;;;;6.57;2.22;;;;;;;24.90;87.43;99567.44;6310781;28;20048;-72
2023/07/21 13:52:54;;;;;;;2.53;1.98;;;;;;;24.85;87.52;99575.19;6295883;28;20044;-72
2023/07/21 13:55:55;;;;;;;3.70;2.00;;;;;;;24.75;86.37;99580.91;6295747;28;20567;-72
2023/07/21 13:58:57;;;;;;;4.13;1.97;;;;;;;24.40;82.30;99562.22;6295711;28;20377;-72
2023/07/21 14:01:57;;;;;;;2.40;1.85;;;;;;;24.68;84.24;99572.03;6296031;28;20496;-72
2023/07/21 14:04:58;;;;;;;3.90;1.80;;;;;;;24.52;82.94;99581.19;6295380;28;20063;-70
2023/07/21 14:07:59;;;;;;;3.07;2.00;;;;;;;24.42;83.33;99570.84;6298203;28;20094;-72
2023/07/21 14:11:00;;;;;;;6.57;1.65;;;;;;;24.63;83.56;99558.50;6320880;28;20441;-72
2023/07/21 14:14:01;;;;;;;5.10;1.90;;;;;;;24.73;82.96;99551.75;6321451;28;20093;-72
2023/07/21 14:17:02;;;;;;;2.50;1.90;;;;;;;24.96;81.37;99539.97;6319941;28;20052;-72
2023/07/21 14:20:08;;;;;;;2.45;1.98;;;;;;;25.22;82.26;99511.72;6320550;28;20515;-72